createdAt,value
2018-03-14T00:00:05.206Z,946.19
2018-03-14T00:01:05.190Z,946.16
2018-03-14T00:02:05.175Z,946.16
2018-03-14T00:03:05.158Z,946.18
2018-03-14T00:04:05.140Z,946.21
2018-03-14T00:05:05.125Z,946.2
2018-03-14T00:06:05.108Z,946.21
2018-03-14T00:07:05.092Z,946.21
2018-03-14T00:08:05.085Z,946.21
2018-03-14T00:09:05.057Z,946.22
2018-03-14T00:10:05.041Z,946.23
2018-03-14T00:11:05.024Z,946.2
2018-03-14T00:12:05.007Z,946.22
2018-03-14T00:13:04.993Z,946.25
2018-03-14T00:14:04.975Z,946.25
2018-03-14T00:15:04.957Z,946.29
2018-03-14T00:16:04.939Z,946.32
2018-03-14T00:17:04.924Z,946.3
2018-03-14T00:18:04.908Z,946.34
2018-03-14T00:19:04.890Z,946.3
2018-03-14T00:20:04.874Z,946.34
2018-03-14T00:21:04.856Z,946.35
2018-03-14T00:22:04.837Z,946.35
2018-03-14T00:23:04.823Z,946.36
2018-03-14T00:24:04.806Z,946.34
2018-03-14T00:25:04.790Z,946.33
2018-03-14T00:26:04.774Z,946.35
2018-03-14T00:27:04.759Z,946.41
2018-03-14T00:28:04.744Z,946.38
2018-03-14T00:29:04.724Z,946.37
2018-03-14T00:30:04.705Z,946.43
2018-03-14T00:31:04.688Z,946.39
2018-03-14T00:32:04.672Z,946.44
2018-03-14T00:33:04.654Z,946.45
2018-03-14T00:34:04.639Z,946.48
2018-03-14T00:35:04.622Z,946.48
2018-03-14T00:36:04.604Z,946.45
2018-03-14T00:37:04.587Z,946.44
2018-03-14T00:38:04.570Z,946.42
2018-03-14T00:39:04.552Z,946.46
2018-03-14T00:40:04.541Z,946.46
2018-03-14T00:41:04.518Z,946.44
2018-03-14T00:42:04.502Z,946.46
2018-03-14T00:43:04.484Z,946.46
2018-03-14T00:44:04.467Z,946.51
2018-03-14T00:45:04.450Z,946.5
2018-03-14T00:46:04.433Z,946.48
2018-03-14T00:47:04.420Z,946.5
2018-03-14T00:48:04.399Z,946.47
2018-03-14T00:49:04.383Z,946.51
2018-03-14T00:50:04.366Z,946.52
2018-03-14T00:51:04.349Z,946.51
2018-03-14T00:52:04.332Z,946.49
2018-03-14T00:53:04.315Z,946.45
2018-03-14T00:54:04.299Z,946.5
2018-03-14T00:55:04.281Z,946.46
2018-03-14T00:56:04.264Z,946.47
2018-03-14T00:57:04.248Z,946.5
2018-03-14T00:58:04.231Z,946.44
2018-03-14T00:59:04.214Z,946.44
2018-03-14T01:00:04.197Z,946.46
2018-03-14T01:01:04.179Z,946.44
2018-03-14T01:02:04.163Z,946.47
2018-03-14T01:03:04.147Z,946.48
2018-03-14T01:04:04.131Z,946.49
2018-03-14T01:05:04.115Z,946.49
2018-03-14T01:06:04.100Z,946.5
2018-03-14T01:07:04.080Z,946.52
2018-03-14T01:08:04.064Z,946.49
2018-03-14T01:09:04.048Z,946.5
2018-03-14T01:10:04.064Z,946.5
2018-03-14T01:11:04.012Z,946.5
2018-03-14T01:12:03.998Z,946.5
2018-03-14T01:13:03.978Z,946.54
2018-03-14T01:14:03.961Z,946.54
2018-03-14T01:15:03.944Z,946.49
2018-03-14T01:16:03.928Z,946.54
2018-03-14T01:17:03.909Z,946.49
2018-03-14T01:18:03.894Z,946.5
2018-03-14T01:19:03.878Z,946.47
2018-03-14T01:20:03.861Z,946.52
2018-03-14T01:21:03.843Z,946.53
2018-03-14T01:22:03.826Z,946.52
2018-03-14T01:23:03.809Z,946.5
2018-03-14T01:24:03.792Z,946.5
2018-03-14T01:25:03.777Z,946.55
2018-03-14T01:26:03.759Z,946.48
2018-03-14T01:27:03.744Z,946.53
2018-03-14T01:28:03.725Z,946.47
2018-03-14T01:29:03.709Z,946.52
2018-03-14T01:30:03.693Z,946.48
2018-03-14T01:31:03.676Z,946.46
2018-03-14T01:32:03.660Z,946.48
2018-03-14T01:33:03.644Z,946.47
2018-03-14T01:34:03.626Z,946.47
2018-03-14T01:35:03.608Z,946.49
2018-03-14T01:36:03.592Z,946.46
2018-03-14T01:37:03.575Z,946.47
2018-03-14T01:38:03.560Z,946.51
2018-03-14T01:39:03.542Z,946.45
2018-03-14T01:40:03.525Z,946.45
2018-03-14T01:41:03.509Z,946.47
2018-03-14T01:42:03.493Z,946.5
2018-03-14T01:43:03.475Z,946.5
2018-03-14T01:44:03.461Z,946.52
2018-03-14T01:45:03.446Z,946.51
2018-03-14T01:46:03.424Z,946.52
2018-03-14T01:47:03.408Z,946.49
2018-03-14T01:48:03.391Z,946.53
2018-03-14T01:49:03.375Z,946.51
2018-03-14T01:50:03.357Z,946.5
2018-03-14T01:51:03.341Z,946.54
2018-03-14T01:52:03.324Z,946.54
2018-03-14T01:53:03.308Z,946.55
2018-03-14T01:54:03.290Z,946.58
2018-03-14T01:55:03.273Z,946.59
2018-03-14T01:56:03.257Z,946.55
2018-03-14T01:57:03.240Z,946.61
2018-03-14T01:58:03.223Z,946.63
2018-03-14T01:59:03.207Z,946.62
2018-03-14T02:00:03.192Z,946.61
2018-03-14T02:01:03.173Z,946.62
2018-03-14T02:02:03.156Z,946.66
2018-03-14T02:03:03.140Z,946.65
2018-03-14T02:04:03.123Z,946.64
2018-03-14T02:05:03.105Z,946.66
2018-03-14T02:06:03.089Z,946.66
2018-03-14T02:07:03.073Z,946.64
2018-03-14T02:08:03.054Z,946.63
2018-03-14T02:09:03.038Z,946.66
2018-03-14T02:10:03.022Z,946.66
2018-03-14T02:11:03.005Z,946.67
2018-03-14T02:12:02.991Z,946.67
2018-03-14T02:13:02.972Z,946.7
2018-03-14T02:14:02.954Z,946.67
2018-03-14T02:15:02.939Z,946.69
2018-03-14T02:16:02.920Z,946.71
2018-03-14T02:17:02.903Z,946.7
2018-03-14T02:18:02.887Z,946.74
2018-03-14T02:19:02.869Z,946.73
2018-03-14T02:20:02.853Z,946.72
2018-03-14T02:21:02.837Z,946.78
2018-03-14T02:22:02.821Z,946.79
2018-03-14T02:23:02.802Z,946.79
2018-03-14T02:24:02.786Z,946.78
2018-03-14T02:25:02.770Z,946.78
2018-03-14T02:26:02.752Z,946.79
2018-03-14T02:27:02.735Z,946.82
2018-03-14T02:28:02.718Z,946.85
2018-03-14T02:29:02.701Z,946.83
2018-03-14T02:30:02.684Z,946.87
2018-03-14T02:31:02.668Z,946.91
2018-03-14T02:32:02.653Z,946.89
2018-03-14T02:33:02.665Z,946.91
2018-03-14T02:34:02.617Z,946.96
2018-03-14T02:35:02.599Z,946.92
2018-03-14T02:36:02.586Z,946.96
2018-03-14T02:37:02.566Z,946.95
2018-03-14T02:38:02.551Z,946.97
2018-03-14T02:39:02.533Z,946.97
2018-03-14T02:40:02.515Z,946.98
2018-03-14T02:41:02.499Z,946.97
2018-03-14T02:42:02.482Z,947.01
2018-03-14T02:43:02.464Z,946.99
2018-03-14T02:44:02.449Z,947
2018-03-14T02:45:02.430Z,946.96
2018-03-14T02:46:02.413Z,946.99
2018-03-14T02:47:02.397Z,946.97
2018-03-14T02:48:02.379Z,947.03
2018-03-14T02:49:02.363Z,947.01
2018-03-14T02:50:02.345Z,946.99
2018-03-14T02:51:02.329Z,947.01
2018-03-14T02:52:02.310Z,947.02
2018-03-14T02:53:02.294Z,947.01
2018-03-14T02:54:02.276Z,947.05
2018-03-14T02:55:02.261Z,947.01
2018-03-14T02:56:02.242Z,947.04
2018-03-14T02:57:02.225Z,947.07
2018-03-14T02:58:02.207Z,947.12
2018-03-14T02:59:02.189Z,947.12
2018-03-14T03:00:02.174Z,947.11
2018-03-14T03:01:02.157Z,947.1
2018-03-14T03:02:02.139Z,947.12
2018-03-14T03:03:02.122Z,947.18
2018-03-14T03:04:02.108Z,947.16
2018-03-14T03:05:02.092Z,947.2
2018-03-14T03:06:02.072Z,947.19
2018-03-14T03:07:02.055Z,947.14
2018-03-14T03:08:02.036Z,947.2
2018-03-14T03:09:02.020Z,947.2
2018-03-14T03:10:02.002Z,947.18
2018-03-14T03:11:01.986Z,947.21
2018-03-14T03:12:01.972Z,947.23
2018-03-14T03:13:01.951Z,947.25
2018-03-14T03:14:01.933Z,947.24
2018-03-14T03:15:01.919Z,947.24
2018-03-14T03:16:01.900Z,947.23
2018-03-14T03:17:01.883Z,947.26
2018-03-14T03:18:01.865Z,947.24
2018-03-14T03:19:01.848Z,947.27
2018-03-14T03:20:01.831Z,947.24
2018-03-14T03:21:01.813Z,947.28
2018-03-14T03:22:01.804Z,947.27
2018-03-14T03:23:01.779Z,947.31
2018-03-14T03:24:01.764Z,947.29
2018-03-14T03:25:01.744Z,947.26
2018-03-14T03:26:01.726Z,947.29
2018-03-14T03:27:01.709Z,947.3
2018-03-14T03:28:01.694Z,947.34
2018-03-14T03:29:01.676Z,947.35
2018-03-14T03:30:01.659Z,947.34
2018-03-14T03:31:01.643Z,947.34
2018-03-14T03:32:01.663Z,947.32
2018-03-14T03:33:01.607Z,947.31
2018-03-14T03:34:01.592Z,947.33
2018-03-14T03:35:01.574Z,947.35
2018-03-14T03:36:01.555Z,947.36
2018-03-14T03:37:01.541Z,947.4
2018-03-14T03:38:01.521Z,947.37
2018-03-14T03:39:01.505Z,947.35
2018-03-14T03:40:01.486Z,947.33
2018-03-14T03:41:01.474Z,947.43
2018-03-14T03:42:01.453Z,947.42
2018-03-14T03:43:01.435Z,947.39
2018-03-14T03:44:01.418Z,947.42
2018-03-14T03:45:01.403Z,947.45
2018-03-14T03:46:01.384Z,947.43
2018-03-14T03:47:01.366Z,947.44
2018-03-14T03:48:01.350Z,947.49
2018-03-14T03:49:01.333Z,947.48
2018-03-14T03:50:01.316Z,947.49
2018-03-14T03:51:01.298Z,947.48
2018-03-14T03:52:01.280Z,947.53
2018-03-14T03:53:01.264Z,947.48
2018-03-14T03:54:01.249Z,947.5
2018-03-14T03:55:01.229Z,947.56
2018-03-14T03:56:01.212Z,947.44
2018-03-14T03:57:01.194Z,947.48
2018-03-14T03:58:01.177Z,947.49
2018-03-14T03:59:01.160Z,947.49
2018-03-14T04:00:01.148Z,947.52
2018-03-14T04:01:01.128Z,947.52
2018-03-14T04:02:01.113Z,947.51
2018-03-14T04:03:01.094Z,947.48
2018-03-14T04:04:01.073Z,947.5
2018-03-14T04:05:01.057Z,947.53
2018-03-14T04:06:01.040Z,947.51
2018-03-14T04:07:01.024Z,947.55
2018-03-14T04:08:01.008Z,947.5
2018-03-14T04:09:00.990Z,947.53
2018-03-14T04:10:00.972Z,947.52
2018-03-14T04:11:00.957Z,947.54
2018-03-14T04:12:00.939Z,947.53
2018-03-14T04:13:00.921Z,947.57
2018-03-14T04:14:00.906Z,947.56
2018-03-14T04:15:00.889Z,947.6
2018-03-14T04:16:00.869Z,947.56
2018-03-14T04:17:00.853Z,947.56
2018-03-14T04:18:00.838Z,947.58
2018-03-14T04:19:00.819Z,947.57
2018-03-14T04:20:00.801Z,947.58
2018-03-14T04:21:00.784Z,947.63
2018-03-14T04:22:00.767Z,947.58
2018-03-14T04:23:00.750Z,947.61
2018-03-14T04:24:00.732Z,947.58
2018-03-14T04:25:00.727Z,947.56
2018-03-14T04:26:00.699Z,947.57
2018-03-14T04:27:00.680Z,947.58
2018-03-14T04:28:00.663Z,947.6
2018-03-14T04:29:00.647Z,947.6
2018-03-14T04:30:00.629Z,947.6
2018-03-14T04:31:00.611Z,947.61
2018-03-14T04:32:00.595Z,947.6
2018-03-14T04:33:00.578Z,947.64
2018-03-14T04:34:00.560Z,947.67
2018-03-14T04:35:00.544Z,947.67
2018-03-14T04:36:00.526Z,947.66
2018-03-14T04:37:00.510Z,947.67
2018-03-14T04:38:00.491Z,947.72
2018-03-14T04:39:00.475Z,947.69
2018-03-14T04:40:00.457Z,947.69
2018-03-14T04:41:00.440Z,947.78
2018-03-14T04:42:00.423Z,947.71
2018-03-14T04:43:00.405Z,947.72
2018-03-14T04:44:00.388Z,947.76
2018-03-14T04:45:00.372Z,947.73
2018-03-14T04:46:00.353Z,947.74
2018-03-14T04:47:00.337Z,947.74
2018-03-14T04:48:00.320Z,947.76
2018-03-14T04:49:00.302Z,947.81
2018-03-14T04:50:00.284Z,947.77
2018-03-14T04:51:00.268Z,947.74
2018-03-14T04:52:00.252Z,947.76
2018-03-14T04:53:00.233Z,947.75
2018-03-14T04:54:00.216Z,947.78
2018-03-14T04:55:00.198Z,947.8
2018-03-14T04:56:00.181Z,947.78
2018-03-14T04:57:00.164Z,947.79
2018-03-14T04:58:00.147Z,947.8
2018-03-14T04:59:00.130Z,947.81
2018-03-14T05:00:00.112Z,947.83
2018-03-14T05:01:00.101Z,947.85
2018-03-14T05:02:00.084Z,947.81
2018-03-14T05:03:00.061Z,947.8
2018-03-14T05:04:00.044Z,947.81
2018-03-14T05:05:00.027Z,947.8
2018-03-14T05:06:00.010Z,947.83
2018-03-14T05:06:59.996Z,947.86
2018-03-14T05:07:59.979Z,947.85
2018-03-14T05:08:59.958Z,947.84
2018-03-14T05:09:59.941Z,947.87
2018-03-14T05:10:59.924Z,947.89
2018-03-14T05:11:59.907Z,947.89
2018-03-14T05:12:59.890Z,947.88
2018-03-14T05:13:59.872Z,947.91
2018-03-14T05:14:59.854Z,947.91
2018-03-14T05:15:59.838Z,947.88
2018-03-14T05:16:59.821Z,947.93
2018-03-14T05:17:59.803Z,947.91
2018-03-14T05:18:59.786Z,947.91
2018-03-14T05:19:59.769Z,947.88
2018-03-14T05:20:59.753Z,947.95
2018-03-14T05:21:59.735Z,947.93
2018-03-14T05:22:59.718Z,947.94
2018-03-14T05:23:59.701Z,947.93
2018-03-14T05:24:59.684Z,947.95
2018-03-14T05:25:59.666Z,947.98
2018-03-14T05:26:59.653Z,947.98
2018-03-14T05:27:59.633Z,948.02
2018-03-14T05:28:59.615Z,947.99
2018-03-14T05:29:59.601Z,948.01
2018-03-14T05:30:59.583Z,948.04
2018-03-14T05:31:59.564Z,948.03
2018-03-14T05:32:59.546Z,947.98
2018-03-14T05:33:59.530Z,948.03
2018-03-14T05:34:59.511Z,947.99
2018-03-14T05:35:59.499Z,947.99
2018-03-14T05:36:59.478Z,948
2018-03-14T05:37:59.461Z,947.99
2018-03-14T05:38:59.444Z,948.01
2018-03-14T05:39:59.427Z,948.01
2018-03-14T05:40:59.410Z,947.99
2018-03-14T05:41:59.393Z,948
2018-03-14T05:42:59.375Z,947.99
2018-03-14T05:43:59.358Z,948.01
2018-03-14T05:44:59.341Z,947.99
2018-03-14T05:45:59.326Z,948.04
2018-03-14T05:46:59.312Z,948.04
2018-03-14T05:47:59.291Z,948.01
2018-03-14T05:48:59.274Z,948.04
2018-03-14T05:49:59.258Z,948.04
2018-03-14T05:50:59.239Z,948.08
2018-03-14T05:51:59.224Z,948.03
2018-03-14T05:52:59.208Z,948.05
2018-03-14T05:53:59.189Z,947.97
2018-03-14T05:54:59.172Z,948.01
2018-03-14T05:55:59.155Z,948.01
2018-03-14T05:56:59.138Z,948.03
2018-03-14T05:57:59.121Z,948.04
2018-03-14T05:58:59.104Z,948.04
2018-03-14T05:59:59.087Z,948.03
2018-03-14T06:00:59.071Z,948.03
2018-03-14T06:01:59.053Z,948.08
2018-03-14T06:02:59.036Z,948.04
2018-03-14T06:03:59.019Z,948.07
2018-03-14T06:04:59.002Z,948.08
2018-03-14T06:05:58.985Z,948.06
2018-03-14T06:06:58.971Z,948.08
2018-03-14T06:07:58.951Z,948.08
2018-03-14T06:08:58.934Z,948.07
2018-03-14T06:09:58.916Z,948.12
2018-03-14T06:10:58.900Z,948.12
2018-03-14T06:11:58.883Z,948.08
2018-03-14T06:12:58.865Z,948.12
2018-03-14T06:13:58.850Z,948.13
2018-03-14T06:14:58.834Z,948.14
2018-03-14T06:15:58.821Z,948.14
2018-03-14T06:16:58.798Z,948.15
2018-03-14T06:17:58.781Z,948.19
2018-03-14T06:18:58.764Z,948.23
2018-03-14T06:19:58.746Z,948.23
2018-03-14T06:20:58.729Z,948.19
2018-03-14T06:21:58.714Z,948.24
2018-03-14T06:22:58.696Z,948.21
2018-03-14T06:23:58.679Z,948.28
2018-03-14T06:24:58.662Z,948.24
2018-03-14T06:25:58.646Z,948.26
2018-03-14T06:26:58.629Z,948.3
2018-03-14T06:27:58.611Z,948.32
2018-03-14T06:28:58.596Z,948.33
2018-03-14T06:29:58.578Z,948.36
2018-03-14T06:30:58.561Z,948.34
2018-03-14T06:31:58.544Z,948.35
2018-03-14T06:32:58.530Z,948.35
2018-03-14T06:33:58.511Z,948.36
2018-03-14T06:34:58.494Z,948.41
2018-03-14T06:35:58.476Z,948.39
2018-03-14T06:36:58.460Z,948.37
2018-03-14T06:37:58.444Z,948.38
2018-03-14T06:38:58.428Z,948.39
2018-03-14T06:39:58.414Z,948.34
2018-03-14T06:40:58.394Z,948.35
2018-03-14T06:41:58.376Z,948.37
2018-03-14T06:42:58.360Z,948.34
2018-03-14T06:43:58.344Z,948.35
2018-03-14T06:44:58.326Z,948.32
2018-03-14T06:45:58.309Z,948.33
2018-03-14T06:46:58.293Z,948.3
2018-03-14T06:47:58.276Z,948.3
2018-03-14T06:48:58.260Z,948.32
2018-03-14T06:49:58.244Z,948.35
2018-03-14T06:50:58.228Z,948.34
2018-03-14T06:51:58.211Z,948.43
2018-03-14T06:52:58.194Z,948.4
2018-03-14T06:53:58.181Z,948.42
2018-03-14T06:54:58.161Z,948.44
2018-03-14T06:55:58.145Z,948.45
2018-03-14T06:56:58.130Z,948.47
2018-03-14T06:57:58.112Z,948.47
2018-03-14T06:58:58.146Z,948.43
2018-03-14T06:59:58.083Z,948.43
2018-03-14T07:00:58.064Z,948.46
2018-03-14T07:01:58.047Z,948.47
2018-03-14T07:02:58.031Z,948.47
2018-03-14T07:03:58.015Z,948.47
2018-03-14T07:04:57.999Z,948.46
2018-03-14T07:05:57.982Z,948.51
2018-03-14T07:06:57.967Z,948.49
2018-03-14T07:07:57.949Z,948.49
2018-03-14T07:08:57.933Z,948.51
2018-03-14T07:09:57.916Z,948.52
2018-03-14T07:10:57.901Z,948.51
2018-03-14T07:11:57.901Z,948.51
2018-03-14T07:12:57.869Z,948.5
2018-03-14T07:13:57.852Z,948.54
2018-03-14T07:14:57.835Z,948.55
2018-03-14T07:15:57.821Z,948.59
2018-03-14T07:16:57.804Z,948.54
2018-03-14T07:17:57.788Z,948.59
2018-03-14T07:18:57.772Z,948.55
2018-03-14T07:19:57.758Z,948.6
2018-03-14T07:20:57.740Z,948.53
2018-03-14T07:21:57.724Z,948.54
2018-03-14T07:22:57.708Z,948.57
2018-03-14T07:23:57.693Z,948.57
2018-03-14T07:24:57.677Z,948.53
2018-03-14T07:25:57.662Z,948.55
2018-03-14T07:26:57.645Z,948.53
2018-03-14T07:27:57.629Z,948.58
2018-03-14T07:28:57.613Z,948.56
2018-03-14T07:29:57.596Z,948.54
2018-03-14T07:30:57.581Z,948.58
2018-03-14T07:31:57.565Z,948.58
2018-03-14T07:32:57.548Z,948.55
2018-03-14T07:33:57.543Z,948.61
2018-03-14T07:34:57.517Z,948.58
2018-03-14T07:35:57.508Z,948.61
2018-03-14T07:36:57.485Z,948.62
2018-03-14T07:37:57.470Z,948.61
2018-03-14T07:38:57.464Z,948.63
2018-03-14T07:39:57.439Z,948.65
2018-03-14T07:40:57.423Z,948.65
2018-03-14T07:41:57.407Z,948.63
2018-03-14T07:42:57.393Z,948.66
2018-03-14T07:43:57.376Z,948.7
2018-03-14T07:44:57.362Z,948.7
2018-03-14T07:45:57.346Z,948.72
2018-03-14T07:46:57.335Z,948.71
2018-03-14T07:47:57.315Z,948.72
2018-03-14T07:48:57.299Z,948.78
2018-03-14T07:49:57.284Z,948.75
2018-03-14T07:50:57.268Z,948.79
2018-03-14T07:51:57.253Z,948.76
2018-03-14T07:52:57.237Z,948.79
2018-03-14T07:53:57.222Z,948.76
2018-03-14T07:54:57.207Z,948.73
2018-03-14T07:55:57.191Z,948.81
2018-03-14T07:56:57.176Z,948.79
2018-03-14T07:57:57.161Z,948.72
2018-03-14T07:58:57.148Z,948.73
2018-03-14T07:59:57.131Z,948.75
2018-03-14T08:00:57.114Z,948.71
2018-03-14T08:01:57.100Z,948.76
2018-03-14T08:02:57.085Z,948.75
2018-03-14T08:03:57.069Z,948.74
2018-03-14T08:04:57.054Z,948.7
2018-03-14T08:05:57.038Z,948.73
2018-03-14T08:06:57.028Z,948.73
2018-03-14T08:07:57.008Z,948.67
2018-03-14T08:08:56.992Z,948.7
2018-03-14T08:09:56.978Z,948.69
2018-03-14T08:10:56.962Z,948.74
2018-03-14T08:11:56.946Z,948.73
2018-03-14T08:12:56.931Z,948.7
2018-03-14T08:13:56.942Z,948.73
2018-03-14T08:14:56.899Z,948.71
2018-03-14T08:15:56.886Z,948.73
2018-03-14T08:16:56.869Z,948.75
2018-03-14T08:17:56.855Z,948.74
2018-03-14T08:18:56.840Z,948.76
2018-03-14T08:19:56.825Z,948.74
2018-03-14T08:20:56.810Z,948.75
2018-03-14T08:21:56.795Z,948.75
2018-03-14T08:22:56.779Z,948.76
2018-03-14T08:23:56.764Z,948.76
2018-03-14T08:24:56.748Z,948.7
2018-03-14T08:25:56.763Z,948.78
2018-03-14T08:26:56.719Z,948.75
2018-03-14T08:27:56.702Z,948.77
2018-03-14T08:28:56.687Z,948.81
2018-03-14T08:29:56.672Z,948.74
2018-03-14T08:30:56.657Z,948.75
2018-03-14T08:31:56.641Z,948.75
2018-03-14T08:32:56.626Z,948.79
2018-03-14T08:33:56.613Z,948.78
2018-03-14T08:34:56.597Z,948.8
2018-03-14T08:35:56.581Z,948.8
2018-03-14T08:36:56.566Z,948.83
2018-03-14T08:37:56.552Z,948.83
2018-03-14T08:38:56.536Z,948.82
2018-03-14T08:39:56.522Z,948.83
2018-03-14T08:40:56.507Z,948.84
2018-03-14T08:41:56.492Z,948.8
2018-03-14T08:42:56.477Z,948.82
2018-03-14T08:43:56.462Z,948.8
2018-03-14T08:44:56.447Z,948.79
2018-03-14T08:45:56.433Z,948.81
2018-03-14T08:46:56.417Z,948.84
2018-03-14T08:47:56.403Z,948.81
2018-03-14T08:48:56.389Z,948.82
2018-03-14T08:49:56.373Z,948.82
2018-03-14T08:50:56.358Z,948.82
2018-03-14T08:51:56.348Z,948.79
2018-03-14T08:52:56.330Z,948.82
2018-03-14T08:53:56.315Z,948.8
2018-03-14T08:54:56.301Z,948.87
2018-03-14T08:55:56.286Z,948.8
2018-03-14T08:56:56.273Z,948.88
2018-03-14T08:57:56.264Z,948.85
2018-03-14T08:58:56.244Z,948.81
2018-03-14T08:59:56.230Z,948.81
2018-03-14T09:00:56.218Z,948.81
2018-03-14T09:01:56.200Z,948.78
2018-03-14T09:02:56.185Z,948.84
2018-03-14T09:03:56.171Z,948.84
2018-03-14T09:04:56.155Z,948.82
2018-03-14T09:05:56.141Z,948.85
2018-03-14T09:06:56.131Z,948.88
2018-03-14T09:07:56.111Z,948.89
2018-03-14T09:08:56.097Z,948.91
2018-03-14T09:09:56.086Z,948.88
2018-03-14T09:10:56.068Z,948.92
2018-03-14T09:11:56.052Z,948.89
2018-03-14T09:12:56.037Z,948.92
2018-03-14T09:13:56.023Z,948.93
2018-03-14T09:14:56.008Z,948.94
2018-03-14T09:15:55.994Z,948.95
2018-03-14T09:16:55.982Z,948.96
2018-03-14T09:17:55.964Z,948.91
2018-03-14T09:18:55.948Z,948.92
2018-03-14T09:19:55.933Z,948.95
2018-03-14T09:20:55.920Z,948.97
2018-03-14T09:21:55.905Z,948.97
2018-03-14T09:22:55.888Z,949
2018-03-14T09:23:55.875Z,949.02
2018-03-14T09:24:55.860Z,949
2018-03-14T09:25:55.844Z,949.06
2018-03-14T09:26:55.829Z,949.05
2018-03-14T09:27:55.814Z,949
2018-03-14T09:28:55.800Z,948.99
2018-03-14T09:29:55.783Z,949.04
2018-03-14T09:30:55.770Z,949.01
2018-03-14T09:31:55.755Z,949.01
2018-03-14T09:32:55.740Z,949.02
2018-03-14T09:33:55.725Z,949.05
2018-03-14T09:34:55.710Z,949.01
2018-03-14T09:35:55.694Z,949.03
2018-03-14T09:36:55.680Z,949
2018-03-14T09:37:55.665Z,949.03
2018-03-14T09:38:55.651Z,949.03
2018-03-14T09:39:55.634Z,949.02
2018-03-14T09:40:55.620Z,949.02
2018-03-14T09:41:55.605Z,949.04
2018-03-14T09:42:55.594Z,949.01
2018-03-14T09:43:55.575Z,949.01
2018-03-14T09:44:55.560Z,948.98
2018-03-14T09:45:55.546Z,949
2018-03-14T09:46:55.532Z,948.99
2018-03-14T09:47:55.516Z,949.01
2018-03-14T09:48:55.500Z,948.98
2018-03-14T09:49:55.486Z,948.97
2018-03-14T09:50:55.474Z,948.99
2018-03-14T09:51:55.456Z,948.97
2018-03-14T09:52:55.442Z,948.98
2018-03-14T09:53:55.427Z,948.99
2018-03-14T09:54:55.412Z,948.95
2018-03-14T09:55:55.396Z,948.95
2018-03-14T09:56:55.382Z,948.94
2018-03-14T09:57:55.368Z,948.95
2018-03-14T09:58:55.353Z,948.97
2018-03-14T09:59:55.337Z,949
2018-03-14T10:00:55.323Z,949.02
2018-03-14T10:01:55.308Z,949.03
2018-03-14T10:02:55.292Z,949.01
2018-03-14T10:03:55.303Z,949.01
2018-03-14T10:04:55.262Z,949.05
2018-03-14T10:05:55.248Z,948.96
2018-03-14T10:06:55.233Z,948.98
2018-03-14T10:07:55.219Z,949
2018-03-14T10:08:55.203Z,948.97
2018-03-14T10:09:55.189Z,949.01
2018-03-14T10:10:55.173Z,949.04
2018-03-14T10:11:55.159Z,949.03
2018-03-14T10:12:55.144Z,949.06
2018-03-14T10:13:55.130Z,949.04
2018-03-14T10:14:55.117Z,949.04
2018-03-14T10:15:55.099Z,949.05
2018-03-14T10:16:55.087Z,949.08
2018-03-14T10:17:55.068Z,949.07
2018-03-14T10:18:55.055Z,949.09
2018-03-14T10:19:55.040Z,949.13
2018-03-14T10:20:55.031Z,949.05
2018-03-14T10:21:55.069Z,949.04
2018-03-14T10:22:54.996Z,949.1
2018-03-14T10:23:54.982Z,949.11
2018-03-14T10:24:54.966Z,949.08
2018-03-14T10:25:54.965Z,949.07
2018-03-14T10:26:54.937Z,949.05
2018-03-14T10:27:54.926Z,949.06
2018-03-14T10:28:54.906Z,949.09
2018-03-14T10:29:54.892Z,949.07
2018-03-14T10:30:54.878Z,949.11
2018-03-14T10:31:54.864Z,949.11
2018-03-14T10:32:54.852Z,949.06
2018-03-14T10:33:54.835Z,949.07
2018-03-14T10:34:54.821Z,949.09
2018-03-14T10:35:54.807Z,949.04
2018-03-14T10:36:54.792Z,949.07
2018-03-14T10:37:54.779Z,949.08
2018-03-14T10:38:54.764Z,949.08
2018-03-14T10:39:54.749Z,949.09
2018-03-14T10:40:54.758Z,949.08
2018-03-14T10:41:54.721Z,949.11
2018-03-14T10:42:54.705Z,949.09
2018-03-14T10:43:54.691Z,949.07
2018-03-14T10:44:54.676Z,949.07
2018-03-14T10:45:54.662Z,949.11
2018-03-14T10:46:54.648Z,949.12
2018-03-14T10:47:54.632Z,949.19
2018-03-14T10:48:54.619Z,949.17
2018-03-14T10:49:54.605Z,949.15
2018-03-14T10:50:54.588Z,949.13
2018-03-14T10:51:54.573Z,949.16
2018-03-14T10:52:54.559Z,949.11
2018-03-14T10:53:54.543Z,949.16
2018-03-14T10:54:54.528Z,949.18
2018-03-14T10:55:54.514Z,949.15
2018-03-14T10:56:54.499Z,949.15
2018-03-14T10:57:54.485Z,949.14
2018-03-14T10:58:54.469Z,949.13
2018-03-14T10:59:54.455Z,949.13
2018-03-14T11:00:54.440Z,949.12
2018-03-14T11:01:54.424Z,949.17
2018-03-14T11:02:54.409Z,949.17
2018-03-14T11:03:54.395Z,949.19
2018-03-14T11:04:54.379Z,949.2
2018-03-14T11:05:54.364Z,949.23
2018-03-14T11:06:54.350Z,949.18
2018-03-14T11:07:54.335Z,949.19
2018-03-14T11:08:54.320Z,949.14
2018-03-14T11:09:54.305Z,949.16
2018-03-14T11:10:54.319Z,949.15
2018-03-14T11:11:54.275Z,949.16
2018-03-14T11:12:54.260Z,949.16
2018-03-14T11:13:54.244Z,949.14
2018-03-14T11:14:54.231Z,949.16
2018-03-14T11:15:54.214Z,949.15
2018-03-14T11:16:54.200Z,949.14
2018-03-14T11:17:54.185Z,949.15
2018-03-14T11:18:54.171Z,949.17
2018-03-14T11:19:54.155Z,949.09
2018-03-14T11:20:54.140Z,949.1
2018-03-14T11:21:54.126Z,949.09
2018-03-14T11:22:54.115Z,949.09
2018-03-14T11:23:54.095Z,949.07
2018-03-14T11:24:54.081Z,949.1
2018-03-14T11:25:54.067Z,949.09
2018-03-14T11:26:54.051Z,949.1
2018-03-14T11:27:54.037Z,949.05
2018-03-14T11:28:54.028Z,949.03
2018-03-14T11:29:54.007Z,948.99
2018-03-14T11:30:53.991Z,949.04
2018-03-14T11:31:53.976Z,949.02
2018-03-14T11:32:53.962Z,949.03
2018-03-14T11:33:53.951Z,949.04
2018-03-14T11:34:53.932Z,949.01
2018-03-14T11:35:53.919Z,949.01
2018-03-14T11:36:53.904Z,948.98
2018-03-14T11:37:53.887Z,949
2018-03-14T11:38:53.873Z,948.98
2018-03-14T11:39:53.859Z,948.99
2018-03-14T11:40:53.845Z,948.97
2018-03-14T11:41:53.829Z,948.96
2018-03-14T11:42:53.815Z,948.98
2018-03-14T11:43:53.800Z,948.94
2018-03-14T11:44:53.786Z,948.97
2018-03-14T11:45:53.770Z,948.97
2018-03-14T11:46:53.757Z,949.02
2018-03-14T11:47:53.742Z,948.99
2018-03-14T11:48:53.726Z,949
2018-03-14T11:49:53.716Z,949.03
2018-03-14T11:50:53.709Z,948.98
2018-03-14T11:51:53.684Z,948.95
2018-03-14T11:52:53.669Z,948.94
2018-03-14T11:53:53.711Z,948.93
2018-03-14T11:54:53.680Z,948.89
2018-03-14T11:55:53.682Z,948.87
2018-03-14T11:56:53.657Z,948.92
2018-03-14T11:57:53.603Z,948.93
2018-03-14T11:58:53.625Z,948.91
2018-03-14T11:59:53.570Z,948.88
2018-03-14T12:00:53.555Z,948.92
2018-03-14T12:01:53.541Z,948.92
2018-03-14T12:02:53.527Z,948.88
2018-03-14T12:03:53.512Z,948.88
2018-03-14T12:04:53.498Z,948.9
2018-03-14T12:05:53.483Z,948.89
2018-03-14T12:06:53.471Z,948.92
2018-03-14T12:07:53.456Z,948.91
2018-03-14T12:08:53.445Z,948.9
2018-03-14T12:09:53.429Z,948.91
2018-03-14T12:10:53.416Z,948.92
2018-03-14T12:11:53.400Z,948.88
2018-03-14T12:12:53.386Z,948.84
2018-03-14T12:13:53.372Z,948.85
2018-03-14T12:14:53.358Z,948.83
2018-03-14T12:15:53.343Z,948.82
2018-03-14T12:16:53.328Z,948.8
2018-03-14T12:17:53.314Z,948.77
2018-03-14T12:18:53.300Z,948.77
2018-03-14T12:19:53.287Z,948.75
2018-03-14T12:20:53.273Z,948.73
2018-03-14T12:21:53.258Z,948.73
2018-03-14T12:22:53.245Z,948.68
2018-03-14T12:23:53.230Z,948.69
2018-03-14T12:24:53.217Z,948.71
2018-03-14T12:25:53.202Z,948.73
2018-03-14T12:26:53.188Z,948.7
2018-03-14T12:27:53.174Z,948.75
2018-03-14T12:28:53.161Z,948.72
2018-03-14T12:29:53.150Z,948.73
2018-03-14T12:30:53.153Z,948.75